Time;durP1;ratioP1;P1;durP2;ratioP2;P2;SDS_P1;SDS_P2;PMS_P1;PMS_P2;Temp;Humidity;BMP_temperature;BMP_pressure;BME280_temperature;BME280_humidity;BME280_pressure;Samples;Min_cycle;Max_cycle;Signal;HPM_P1;HPM_P2
2023/12/26 00:01:45;;;;;;;2.00;0.60;;;;;;;-128.00;-1.00;-1.00;100260;1284;1003152;-35
2023/12/26 00:04:12;;;;;;;4.00;0.80;;;;;;;-128.00;-1.00;-1.00;100099;1282;1005015;-35
2023/12/26 00:06:40;;;;;;;1.40;0.80;;;;;;;-128.00;-1.00;-1.00;100100;1286;1003024;-35
2023/12/26 00:09:05;;;;;;;2.40;0.80;;;;;;;-128.00;-1.00;-1.00;100152;1285;1003190;-35
2023/12/26 00:11:31;;;;;;;2.10;0.90;;;;;;;-128.00;-1.00;-1.00;100118;1285;1005543;-35
2023/12/26 00:13:57;;;;;;;3.00;0.70;;;;;;;-128.00;-1.00;-1.00;100244;1283;1003190;-35
2023/12/26 00:16:23;;;;;;;1.20;0.60;;;;;;;-128.00;-1.00;-1.00;100174;1282;1058814;-35
2023/12/26 00:18:49;;;;;;;;;;;;;;;-128.00;-1.00;-1.00;100087;1285;1002917;-36
2023/12/26 00:21:15;;;;;;;2.20;0.80;;;;;;;-128.00;-1.00;-1.00;100201;1283;1004601;-35
2023/12/26 00:23:40;;;;;;;3.30;0.80;;;;;;;-128.00;-1.00;-1.00;100171;1284;1059470;-35
2023/12/26 00:26:06;;;;;;;1.70;0.70;;;;;;;-128.00;-1.00;-1.00;100129;1285;1003656;-35
2023/12/26 00:28:31;;;;;;;1.80;0.80;;;;;;;-128.00;-1.00;-1.00;100103;1285;1003012;-35
2023/12/26 00:30:57;;;;;;;2.50;0.90;;;;;;;-128.00;-1.00;-1.00;100105;1284;1004496;-35
2023/12/26 00:33:23;;;;;;;3.10;1.10;;;;;;;-128.00;-1.00;-1.00;100199;1285;1060601;-35
2023/12/26 00:35:48;;;;;;;3.90;1.20;;;;;;;-128.00;-1.00;-1.00;100175;1283;1003818;-35
2023/12/26 00:38:14;;;;;;;3.30;1.00;;;;;;;-128.00;-1.00;-1.00;100232;1283;1004557;-39
2023/12/26 00:40:41;;;;;;;3.00;1.20;;;;;;;-128.00;-1.00;-1.00;100276;1283;1003243;-35
2023/12/26 00:43:07;;;;;;;4.00;1.30;;;;;;;-128.00;-1.00;-1.00;100218;1284;1004408;-34
2023/12/26 00:45:33;;;;;;;2.20;1.10;;;;;;;-128.00;-1.00;-1.00;100206;1283;1003206;-34
2023/12/26 00:47:59;;;;;;;3.00;1.40;;;;;;;-128.00;-1.00;-1.00;100336;1283;1003914;-34
2023/12/26 00:50:24;;;;;;;3.10;1.60;;;;;;;-128.00;-1.00;-1.00;100146;1286;1013053;-34
2023/12/26 00:52:50;;;;;;;2.30;1.30;;;;;;;-128.00;-1.00;-1.00;100077;1284;1003537;-34
2023/12/26 00:55:15;;;;;;;4.80;1.60;;;;;;;-128.00;-1.00;-1.00;100112;1284;1059316;-34
2023/12/26 00:57:41;;;;;;;3.20;1.20;;;;;;;-128.00;-1.00;-1.00;100103;1283;1004425;-34
2023/12/26 01:00:07;;;;;;;6.50;1.80;;;;;;;-128.00;-1.00;-1.00;100196;1283;1013784;-35
2023/12/26 01:02:33;;;;;;;3.00;1.60;;;;;;;-128.00;-1.00;-1.00;100260;1284;1003046;-36
2023/12/26 01:04:59;;;;;;;2.80;1.80;;;;;;;-128.00;-1.00;-1.00;100162;1283;1003196;-35
2023/12/26 01:07:24;;;;;;;3.20;1.90;;;;;;;-128.00;-1.00;-1.00;100182;1283;1003326;-36
2023/12/26 01:09:50;;;;;;;;;;;;;;;-128.00;-1.00;-1.00;100048;1285;1059079;-36
2023/12/26 01:12:16;;;;;;;4.90;2.20;;;;;;;-128.00;-1.00;-1.00;100140;1283;1004115;-35
2023/12/26 01:14:42;;;;;;;3.70;2.50;;;;;;;-128.00;-1.00;-1.00;100233;1286;1003814;-36
2023/12/26 01:17:07;;;;;;;3.20;2.50;;;;;;;-128.00;-1.00;-1.00;100112;1282;1060718;-36
2023/12/26 01:19:33;;;;;;;4.10;2.20;;;;;;;-128.00;-1.00;-1.00;100153;1285;1003469;-35
2023/12/26 01:21:59;;;;;;;4.10;2.20;;;;;;;-128.00;-1.00;-1.00;100120;1283;1013748;-35
2023/12/26 01:24:25;;;;;;;3.80;2.30;;;;;;;-128.00;-1.00;-1.00;100192;1283;1002952;-36
2023/12/26 01:26:51;;;;;;;5.20;2.50;;;;;;;-128.00;-1.00;-1.00;100124;1283;1003475;-35
2023/12/26 01:29:16;;;;;;;5.90;2.20;;;;;;;-128.00;-1.00;-1.00;100234;1285;1003796;-36
2023/12/26 01:31:42;;;;;;;3.50;2.20;;;;;;;-128.00;-1.00;-1.00;100107;1285;1058092;-35
2023/12/26 01:34:08;;;;;;;3.00;2.30;;;;;;;-128.00;-1.00;-1.00;100143;1283;1004516;-35
2023/12/26 01:36:33;;;;;;;5.90;2.60;;;;;;;-128.00;-1.00;-1.00;100249;1286;1003422;-35
2023/12/26 01:38:59;;;;;;;3.70;2.50;;;;;;;-128.00;-1.00;-1.00;100210;1283;1060046;-36
2023/12/26 01:41:25;;;;;;;5.40;2.20;;;;;;;-128.00;-1.00;-1.00;100166;1284;1004232;-34
2023/12/26 01:43:51;;;;;;;3.90;2.30;;;;;;;-128.00;-1.00;-1.00;100116;1283;1003329;-34
2023/12/26 01:46:16;;;;;;;3.50;2.10;;;;;;;-128.00;-1.00;-1.00;100144;1283;1003470;-35
2023/12/26 01:48:43;;;;;;;4.30;1.80;;;;;;;-128.00;-1.00;-1.00;99907;1283;1003548;-35
2023/12/26 01:51:09;;;;;;;4.40;1.90;;;;;;;-128.00;-1.00;-1.00;100191;1284;1056522;-35
2023/12/26 02:34:43;;;;;;;3.20;1.10;;;;;;;-100.98;19.20;19687.61;100653;1284;1599395;-37
2023/12/26 02:37:09;;;;;;;2.30;1.10;;;;;;;-128.00;-1.00;-1.00;100121;1288;1002892;-36
2023/12/26 02:39:34;;;;;;;2.60;1.10;;;;;;;-128.00;-1.00;-1.00;100397;1288;1004375;-35
2023/12/26 02:42:00;;;;;;;1.60;0.90;;;;;;;-128.00;-1.00;-1.00;100266;1282;1058243;-35
2023/12/26 02:44:26;;;;;;;2.40;1.10;;;;;;;-128.00;-1.00;-1.00;100160;1287;1002999;-35
2023/12/26 02:46:51;;;;;;;3.00;1.10;;;;;;;-128.00;-1.00;-1.00;100181;1288;1003630;-35
2023/12/26 02:49:17;;;;;;;1.60;1.10;;;;;;;-128.00;-1.00;-1.00;100150;1288;1003342;-35
2023/12/26 02:51:42;;;;;;;2.10;1.20;;;;;;;-128.00;-1.00;-1.00;100219;1283;1003597;-35
2023/12/26 02:54:08;;;;;;;1.70;0.90;;;;;;;-128.00;-1.00;-1.00;100286;1289;1003232;-35
2023/12/26 02:56:34;;;;;;;1.60;1.10;;;;;;;-128.00;-1.00;-1.00;100148;1283;1058398;-35
2023/12/26 02:58:59;;;;;;;2.20;1.10;;;;;;;-128.00;-1.00;-1.00;100156;1288;1003599;-35
2023/12/26 03:01:25;;;;;;;1.60;1.10;;;;;;;-128.00;-1.00;-1.00;100332;1283;1003437;-34
2023/12/26 03:03:50;;;;;;;1.70;1.40;;;;;;;-128.00;-1.00;-1.00;100288;1287;1059564;-36
2023/12/26 03:06:16;;;;;;;3.40;1.50;;;;;;;-128.00;-1.00;-1.00;100215;1287;1003474;-33
2023/12/26 03:08:42;;;;;;;2.90;1.30;;;;;;;-128.00;-1.00;-1.00;100176;1288;1003413;-33
2023/12/26 03:11:07;;;;;;;4.50;1.50;;;;;;;-128.00;-1.00;-1.00;100189;1283;1002723;-34
2023/12/26 03:13:33;;;;;;;5.00;1.20;;;;;;;-128.00;-1.00;-1.00;100192;1287;1004517;-34
2023/12/26 03:15:59;;;;;;;;;;;;;;;-128.00;-1.00;-1.00;100210;1282;1004549;-34
2023/12/26 03:18:24;;;;;;;1.70;1.10;;;;;;;-128.00;-1.00;-1.00;100105;1288;1003657;-34
2023/12/26 03:20:50;;;;;;;3.00;1.30;;;;;;;-128.00;-1.00;-1.00;100197;1282;1003566;-34
2023/12/26 03:23:16;;;;;;;1.90;1.20;;;;;;;-128.00;-1.00;-1.00;100203;1289;1003966;-34
2023/12/26 03:25:41;;;;;;;1.70;1.00;;;;;;;-128.00;-1.00;-1.00;100228;1284;1003514;-34
2023/12/26 03:28:07;;;;;;;2.40;1.10;;;;;;;-128.00;-1.00;-1.00;100283;1288;1004199;-33
2023/12/26 03:30:33;;;;;;;4.30;0.70;;;;;;;-128.00;-1.00;-1.00;100200;1283;1004146;-34
2023/12/26 03:32:58;;;;;;;1.30;0.60;;;;;;;-128.00;-1.00;-1.00;100206;1287;1003791;-34
2023/12/26 03:35:24;;;;;;;1.30;0.70;;;;;;;-128.00;-1.00;-1.00;100220;1287;1003915;-34
2023/12/26 03:37:50;;;;;;;2.30;0.90;;;;;;;-128.00;-1.00;-1.00;100265;1288;1056248;-36
2023/12/26 03:40:16;;;;;;;1.00;0.60;;;;;;;-128.00;-1.00;-1.00;100186;1283;1003682;-34
2023/12/26 03:42:42;;;;;;;2.60;0.80;;;;;;;-128.00;-1.00;-1.00;100016;1287;1002903;-33
2023/12/26 03:45:08;;;;;;;1.80;0.70;;;;;;;-128.00;-1.00;-1.00;100183;1284;1003333;-34
2023/12/26 03:47:34;;;;;;;2.40;0.60;;;;;;;-128.00;-1.00;-1.00;100286;1284;1059966;-34
2023/12/26 03:50:00;;;;;;;1.40;0.70;;;;;;;-128.00;-1.00;-1.00;100199;1283;1003878;-36
2023/12/26 03:52:26;;;;;;;1.00;0.70;;;;;;;-128.00;-1.00;-1.00;100218;1286;1002861;-36
2023/12/26 03:54:52;;;;;;;1.30;0.70;;;;;;;-128.00;-1.00;-1.00;100213;1296;1038269;-35
2023/12/26 03:57:18;;;;;;;0.60;0.50;;;;;;;-128.00;-1.00;-1.00;100226;1289;1005591;-35
2023/12/26 03:59:43;;;;;;;1.10;0.50;;;;;;;-128.00;-1.00;-1.00;100152;1283;1002991;-33
2023/12/26 04:02:10;;;;;;;2.30;0.70;;;;;;;-128.00;-1.00;-1.00;100137;1285;1059511;-33
2023/12/26 04:04:36;;;;;;;3.30;0.60;;;;;;;-128.00;-1.00;-1.00;100143;1283;1004158;-33
2023/12/26 04:07:02;;;;;;;1.20;0.60;;;;;;;-128.00;-1.00;-1.00;100186;1289;1003502;-35
2023/12/26 04:09:27;;;;;;;;;;;;;;;-128.00;-1.00;-1.00;100200;1289;1059039;-35
2023/12/26 04:11:53;;;;;;;4.20;0.60;;;;;;;-128.00;-1.00;-1.00;100184;1283;1003105;-33
2023/12/26 04:14:19;;;;;;;4.00;0.80;;;;;;;-128.00;-1.00;-1.00;100073;1286;1002581;-34
2023/12/26 04:16:44;;;;;;;1.60;0.60;;;;;;;-128.00;-1.00;-1.00;100207;1287;1003740;-35
2023/12/26 04:19:10;;;;;;;0.70;0.40;;;;;;;-128.00;-1.00;-1.00;100191;1289;1003068;-34
2023/12/26 04:21:35;;;;;;;1.50;0.60;;;;;;;-128.00;-1.00;-1.00;100307;1289;1003879;-34
2023/12/26 04:24:01;;;;;;;1.70;0.60;;;;;;;-128.00;-1.00;-1.00;100172;1287;1003381;-34
2023/12/26 04:26:26;;;;;;;2.10;0.50;;;;;;;-128.00;-1.00;-1.00;100151;1285;1004545;-34
2023/12/26 04:28:52;;;;;;;0.90;0.50;;;;;;;-128.00;-1.00;-1.00;100219;1287;1003216;-34
2023/12/26 04:31:17;;;;;;;1.10;0.70;;;;;;;-128.00;-1.00;-1.00;100236;1288;1003570;-34
2023/12/26 04:33:44;;;;;;;1.10;0.50;;;;;;;-128.00;-1.00;-1.00;100157;1285;1004311;-34
2023/12/26 04:36:10;;;;;;;1.10;0.50;;;;;;;-128.00;-1.00;-1.00;100150;1287;1013043;-34
2023/12/26 04:38:36;;;;;;;1.00;0.50;;;;;;;-128.00;-1.00;-1.00;100267;1288;1003481;-34
2023/12/26 04:41:01;;;;;;;2.50;0.70;;;;;;;-128.00;-1.00;-1.00;100217;1287;1003570;-35
2023/12/26 04:43:27;;;;;;;;;;;;;;;-128.00;-1.00;-1.00;100317;1289;1003890;-34
2023/12/26 04:45:52;;;;;;;1.40;0.60;;;;;;;-128.00;-1.00;-1.00;100180;1283;1003887;-35
2023/12/26 04:48:18;;;;;;;1.60;0.50;;;;;;;-128.00;-1.00;-1.00;100217;1286;1003601;-32
2023/12/26 04:50:44;;;;;;;1.00;0.60;;;;;;;-128.00;-1.00;-1.00;100241;1285;1003944;-34
2023/12/26 04:53:11;;;;;;;0.70;0.50;;;;;;;-128.00;-1.00;-1.00;100221;1289;1003151;-34
2023/12/26 04:55:36;;;;;;;0.70;0.50;;;;;;;-128.00;-1.00;-1.00;100177;1286;1058456;-34
2023/12/26 04:58:03;;;;;;;0.80;0.40;;;;;;;-128.00;-1.00;-1.00;100161;1289;1004434;-34
2023/12/26 05:00:28;;;;;;;1.30;0.50;;;;;;;-128.00;-1.00;-1.00;100196;1289;1003480;-34
2023/12/26 05:02:55;;;;;;;1.10;0.50;;;;;;;-128.00;-1.00;-1.00;100232;1283;1003486;-34
2023/12/26 05:05:21;;;;;;;1.50;0.40;;;;;;;-128.00;-1.00;-1.00;100200;1288;1056390;-33
2023/12/26 05:07:46;;;;;;;0.60;0.40;;;;;;;-128.00;-1.00;-1.00;100102;1289;1003117;-34
2023/12/26 05:10:12;;;;;;;0.80;0.40;;;;;;;-128.00;-1.00;-1.00;100257;1289;1003715;-35
2023/12/26 05:12:38;;;;;;;1.00;0.50;;;;;;;-128.00;-1.00;-1.00;100238;1285;1047155;-35
2023/12/26 05:15:04;;;;;;;0.90;0.40;;;;;;;-128.00;-1.00;-1.00;100200;1292;1002917;-36
2023/12/26 05:17:29;;;;;;;1.30;0.60;;;;;;;-128.00;-1.00;-1.00;100187;1286;1003429;-34
2023/12/26 05:19:55;;;;;;;0.40;0.40;;;;;;;-128.00;-1.00;-1.00;100181;1288;1003750;-34
2023/12/26 05:22:21;;;;;;;2.00;0.30;;;;;;;-128.00;-1.00;-1.00;100155;1286;1038887;-34
2023/12/26 05:24:46;;;;;;;0.50;0.30;;;;;;;-128.00;-1.00;-1.00;100253;1284;1002789;-34
2023/12/26 05:27:12;;;;;;;0.70;0.30;;;;;;;-128.00;-1.00;-1.00;100179;1286;1002900;-34
2023/12/26 05:29:37;;;;;;;1.80;0.30;;;;;;;-128.00;-1.00;-1.00;100220;1283;1002842;-34
2023/12/26 05:32:07;;;;;;;0.70;0.40;;;;;;;-128.00;-1.00;-1.00;100241;1285;1003050;-36
2023/12/26 05:34:33;;;;;;;0.80;0.40;;;;;;;-128.00;-1.00;-1.00;100248;1284;1046962;-34
2023/12/26 05:36:58;;;;;;;0.50;0.30;;;;;;;-128.00;-1.00;-1.00;100221;1288;1004734;-33
2023/12/26 05:39:24;;;;;;;0.80;0.30;;;;;;;-128.00;-1.00;-1.00;100204;1285;1004696;-33
2023/12/26 05:41:49;;;;;;;1.00;0.40;;;;;;;-128.00;-1.00;-1.00;100139;1286;1003124;-33
2023/12/26 05:44:15;;;;;;;0.50;0.30;;;;;;;-128.00;-1.00;-1.00;100260;1288;1004667;-34
2023/12/26 05:46:43;;;;;;;0.70;0.40;;;;;;;-128.00;-1.00;-1.00;100210;1283;1058611;-36
2023/12/26 05:49:09;;;;;;;1.30;0.30;;;;;;;-128.00;-1.00;-1.00;100266;1284;1003870;-35
2023/12/26 05:51:34;;;;;;;0.40;0.30;;;;;;;-128.00;-1.00;-1.00;100132;1287;1003451;-33
2023/12/26 05:54:00;;;;;;;0.80;0.40;;;;;;;-128.00;-1.00;-1.00;100167;1283;1003190;-33
2023/12/26 05:56:25;;;;;;;0.70;0.30;;;;;;;-128.00;-1.00;-1.00;100169;1289;1046862;-35
2023/12/26 05:58:51;;;;;;;0.50;0.30;;;;;;;-128.00;-1.00;-1.00;100205;1288;1005383;-36
2023/12/26 06:01:17;;;;;;;0.50;0.20;;;;;;;-128.00;-1.00;-1.00;100172;1286;1058381;-36
2023/12/26 06:03:42;;;;;;;;;;;;;;;-128.00;-1.00;-1.00;100214;1285;1002746;-35
2023/12/26 06:06:09;;;;;;;0.50;0.30;;;;;;;-128.00;-1.00;-1.00;100237;1283;1003551;-34
2023/12/26 06:08:35;;;;;;;0.30;0.20;;;;;;;-128.00;-1.00;-1.00;100184;1283;1058782;-33
2023/12/26 06:11:00;;;;;;;0.60;0.30;;;;;;;-128.00;-1.00;-1.00;100223;1287;1003625;-34
2023/12/26 06:13:26;;;;;;;0.40;0.20;;;;;;;-128.00;-1.00;-1.00;100185;1288;1003631;-34
2023/12/26 06:15:52;;;;;;;;;;;;;;;-128.00;-1.00;-1.00;100259;1287;1039455;-34
2023/12/26 06:18:17;;;;;;;2.30;0.40;;;;;;;-128.00;-1.00;-1.00;100210;1288;1004722;-34
2023/12/26 06:20:43;;;;;;;;;;;;;;;-128.00;-1.00;-1.00;100201;1289;1056000;-35
2023/12/26 06:23:09;;;;;;;0.60;0.30;;;;;;;-128.00;-1.00;-1.00;100140;1283;1003874;-33
2023/12/26 06:25:34;;;;;;;2.00;0.30;;;;;;;-128.00;-1.00;-1.00;100196;1287;1039434;-34
2023/12/26 06:28:00;;;;;;;0.20;0.20;;;;;;;-128.00;-1.00;-1.00;100087;1285;1004526;-33
2023/12/26 06:30:26;;;;;;;0.50;0.20;;;;;;;-128.00;-1.00;-1.00;100300;1288;1003058;-33
2023/12/26 06:32:51;;;;;;;;;;;;;;;-128.00;-1.00;-1.00;100203;1283;1058774;-33
2023/12/26 06:35:17;;;;;;;0.90;0.30;;;;;;;-128.00;-1.00;-1.00;100181;1283;1003925;-32
2023/12/26 06:37:43;;;;;;;1.20;0.20;;;;;;;-128.00;-1.00;-1.00;100211;1283;1045946;-33
2023/12/26 06:40:09;;;;;;;0.50;0.20;;;;;;;-128.00;-1.00;-1.00;100210;1288;1004239;-33
2023/12/26 06:42:35;;;;;;;0.30;0.20;;;;;;;-128.00;-1.00;-1.00;100148;1289;1003187;-33
2023/12/26 06:45:01;;;;;;;0.70;0.30;;;;;;;-128.00;-1.00;-1.00;100160;1285;1003400;-33
2023/12/26 06:47:26;;;;;;;0.70;0.30;;;;;;;-128.00;-1.00;-1.00;100144;1288;1038635;-33
2023/12/26 06:49:53;;;;;;;0.80;0.30;;;;;;;-128.00;-1.00;-1.00;100184;1285;1003516;-33
2023/12/26 06:52:19;;;;;;;0.30;0.20;;;;;;;-128.00;-1.00;-1.00;100331;1286;1055256;-38
2023/12/26 06:54:45;;;;;;;;;;;;;;;-128.00;-1.00;-1.00;100185;1285;1003328;-35
2023/12/26 06:57:15;;;;;;;0.80;0.30;;;;;;;-128.00;-1.00;-1.00;100147;1289;1003810;-35
2023/12/26 06:59:43;;;;;;;1.60;0.30;;;;;;;-128.00;-1.00;-1.00;100191;1286;1046096;-35
2023/12/26 07:02:09;;;;;;;0.70;0.40;;;;;;;-128.00;-1.00;-1.00;100195;1286;1004082;-33
2023/12/26 07:04:34;;;;;;;1.00;0.30;;;;;;;-128.00;-1.00;-1.00;100134;1283;1004066;-34
2023/12/26 07:07:00;;;;;;;0.80;0.30;;;;;;;-128.00;-1.00;-1.00;100154;1283;1003453;-33
2023/12/26 07:09:26;;;;;;;0.80;0.30;;;;;;;-128.00;-1.00;-1.00;100140;1285;1039056;-35
2023/12/26 07:11:51;;;;;;;0.20;0.20;;;;;;;-128.00;-1.00;-1.00;100177;1287;1003666;-33
2023/12/26 07:14:17;;;;;;;0.60;0.30;;;;;;;-128.00;-1.00;-1.00;100282;1284;1055247;-32
2023/12/26 07:16:43;;;;;;;;;;;;;;;-128.00;-1.00;-1.00;100163;1285;1002995;-34
2023/12/26 07:19:08;;;;;;;0.30;0.20;;;;;;;-128.00;-1.00;-1.00;100188;1283;1003070;-38
2023/12/26 07:21:34;;;;;;;0.80;0.50;;;;;;;-128.00;-1.00;-1.00;100271;1285;1003200;-35
2023/12/26 07:23:59;;;;;;;0.70;0.30;;;;;;;-128.00;-1.00;-1.00;100195;1282;1003069;-35
2023/12/26 07:26:25;;;;;;;2.50;0.40;;;;;;;-128.00;-1.00;-1.00;100195;1285;1003886;-34
2023/12/26 07:28:50;;;;;;;1.00;0.40;;;;;;;-128.00;-1.00;-1.00;100249;1284;1004158;-34
2023/12/26 07:31:17;;;;;;;;;;;;;;;-128.00;-1.00;-1.00;100247;1286;1047318;-32
2023/12/26 07:33:42;;;;;;;0.40;0.30;;;;;;;-128.00;-1.00;-1.00;100229;1283;1003294;-34
2023/12/26 07:36:11;;;;;;;0.50;0.40;;;;;;;-128.00;-1.00;-1.00;100151;1283;1004387;-34
2023/12/26 07:38:37;;;;;;;0.70;0.30;;;;;;;-128.00;-1.00;-1.00;100167;1285;1012081;-34
2023/12/26 07:41:03;;;;;;;0.60;0.30;;;;;;;-128.00;-1.00;-1.00;100210;1283;1004394;-39
2023/12/26 07:43:29;;;;;;;;;;;;;;;-128.00;-1.00;-1.00;100177;1286;1003455;-34
2023/12/26 07:45:56;;;;;;;0.50;0.30;;;;;;;-128.00;-1.00;-1.00;100250;1285;1002576;-34
2023/12/26 07:48:21;;;;;;;0.90;0.40;;;;;;;-128.00;-1.00;-1.00;100191;1287;1061135;-35
2023/12/26 07:50:47;;;;;;;1.30;0.30;;;;;;;-128.00;-1.00;-1.00;100233;1287;1003945;-35
2023/12/26 07:53:13;;;;;;;1.70;0.30;;;;;;;-128.00;-1.00;-1.00;100129;1288;1003874;-34
2023/12/26 07:55:38;;;;;;;0.70;0.40;;;;;;;-128.00;-1.00;-1.00;100188;1283;1003281;-35
2023/12/26 07:58:05;;;;;;;1.00;0.30;;;;;;;-128.00;-1.00;-1.00;100215;1283;1003508;-35
2023/12/26 08:00:30;;;;;;;1.10;0.30;;;;;;;-128.00;-1.00;-1.00;100118;1283;1003231;-34
2023/12/26 08:02:56;;;;;;;0.90;0.50;;;;;;;-128.00;-1.00;-1.00;100101;1285;1002520;-34
2023/12/26 08:05:21;;;;;;;0.60;0.30;;;;;;;-128.00;-1.00;-1.00;100154;1285;1002877;-35
2023/12/26 08:07:47;;;;;;;1.30;0.40;;;;;;;-128.00;-1.00;-1.00;100300;1283;1003218;-35
2023/12/26 08:10:13;;;;;;;0.50;0.30;;;;;;;-128.00;-1.00;-1.00;100239;1286;1003397;-34
2023/12/26 08:12:39;;;;;;;0.70;0.40;;;;;;;-128.00;-1.00;-1.00;100161;1283;1012580;-34
2023/12/26 08:15:04;;;;;;;0.80;0.50;;;;;;;-128.00;-1.00;-1.00;100242;1285;1004138;-33
2023/12/26 08:17:30;;;;;;;0.60;0.40;;;;;;;-128.00;-1.00;-1.00;100177;1286;1060745;-33
2023/12/26 08:19:55;;;;;;;0.90;0.50;;;;;;;-128.00;-1.00;-1.00;100202;1285;1003278;-36
2023/12/26 08:22:21;;;;;;;1.90;0.40;;;;;;;-128.00;-1.00;-1.00;100253;1288;1013315;-34
2023/12/26 08:24:47;;;;;;;2.50;0.60;;;;;;;-128.00;-1.00;-1.00;100234;1285;1003318;-33
2023/12/26 08:27:13;;;;;;;0.60;0.40;;;;;;;-128.00;-1.00;-1.00;100193;1288;1060135;-33
2023/12/26 08:29:39;;;;;;;1.10;0.60;;;;;;;-128.00;-1.00;-1.00;100220;1283;1004664;-35
2023/12/26 08:32:05;;;;;;;1.10;0.60;;;;;;;-128.00;-1.00;-1.00;100218;1283;1003088;-35
2023/12/26 08:34:30;;;;;;;;;;;;;;;-128.00;-1.00;-1.00;100273;1288;1039325;-34
2023/12/26 08:36:56;;;;;;;1.30;0.50;;;;;;;-128.00;-1.00;-1.00;100206;1283;1004341;-34
2023/12/26 08:39:22;;;;;;;0.80;0.30;;;;;;;-128.00;-1.00;-1.00;100088;1286;1003360;-35
2023/12/26 08:41:47;;;;;;;0.70;0.40;;;;;;;-128.00;-1.00;-1.00;100189;1282;1003202;-34
2023/12/26 08:44:13;;;;;;;0.80;0.40;;;;;;;-128.00;-1.00;-1.00;100144;1283;1002909;-35
2023/12/26 08:46:39;;;;;;;1.70;0.50;;;;;;;-128.00;-1.00;-1.00;100163;1283;1046854;-34
2023/12/26 08:49:05;;;;;;;1.00;0.60;;;;;;;-128.00;-1.00;-1.00;100117;1283;1003858;-34
2023/12/26 08:51:31;;;;;;;0.70;0.40;;;;;;;-128.00;-1.00;-1.00;100183;1283;1002852;-35
2023/12/26 08:53:56;;;;;;;;;;;;;;;-128.00;-1.00;-1.00;100160;1283;1012998;-35
2023/12/26 08:56:24;;;;;;;0.70;0.30;;;;;;;-128.00;-1.00;-1.00;100229;1283;1003839;-35
2023/12/26 08:58:50;;;;;;;0.50;0.40;;;;;;;-128.00;-1.00;-1.00;100264;1283;1003367;-35
2023/12/26 09:01:16;;;;;;;0.90;0.50;;;;;;;-128.00;-1.00;-1.00;100207;1284;1003415;-35
2023/12/26 09:03:41;;;;;;;1.30;0.50;;;;;;;-128.00;-1.00;-1.00;100265;1283;1003434;-35
2023/12/26 09:06:10;;;;;;;1.10;0.40;;;;;;;-128.00;-1.00;-1.00;100172;1287;1013737;-33
2023/12/26 09:08:36;;;;;;;0.70;0.30;;;;;;;-128.00;-1.00;-1.00;100204;1286;1038045;-34
2023/12/26 09:11:02;;;;;;;;;;;;;;;-128.00;-1.00;-1.00;100198;1283;1003439;-34
2023/12/26 09:13:28;;;;;;;0.80;0.30;;;;;;;-128.00;-1.00;-1.00;100172;1283;1005003;-34
2023/12/26 09:15:55;;;;;;;0.90;0.30;;;;;;;-128.00;-1.00;-1.00;100154;1283;1003218;-34
2023/12/26 09:18:20;;;;;;;;;;;;;;;-128.00;-1.00;-1.00;100190;1286;1002986;-35
2023/12/26 09:20:46;;;;;;;1.00;0.40;;;;;;;-128.00;-1.00;-1.00;100269;1285;1038461;-35
2023/12/26 09:23:12;;;;;;;1.00;0.40;;;;;;;-128.00;-1.00;-1.00;100286;1283;1002922;-34
2023/12/26 09:25:38;;;;;;;0.90;0.40;;;;;;;-128.00;-1.00;-1.00;100163;1284;1055705;-33
2023/12/26 09:28:05;;;;;;;0.90;0.40;;;;;;;-128.00;-1.00;-1.00;100242;1282;1003120;-35
2023/12/26 09:30:30;;;;;;;0.80;0.40;;;;;;;-128.00;-1.00;-1.00;100244;1283;1003660;-35
2023/12/26 09:32:56;;;;;;;0.70;0.40;;;;;;;-128.00;-1.00;-1.00;100202;1286;1003635;-32
2023/12/26 09:35:22;;;;;;;0.70;0.40;;;;;;;-128.00;-1.00;-1.00;100262;1283;1003816;-34
2023/12/26 09:37:47;;;;;;;0.50;0.40;;;;;;;-128.00;-1.00;-1.00;100226;1283;1004806;-34
2023/12/26 09:40:13;;;;;;;0.90;0.20;;;;;;;-128.00;-1.00;-1.00;100193;1283;1003836;-34
2023/12/26 09:42:39;;;;;;;0.90;0.50;;;;;;;-128.00;-1.00;-1.00;100194;1286;1039407;-34
2023/12/26 09:45:09;;;;;;;0.90;0.40;;;;;;;-128.00;-1.00;-1.00;100190;1285;1002728;-34
2023/12/26 09:47:34;;;;;;;1.50;0.60;;;;;;;-128.00;-1.00;-1.00;100213;1288;1060773;-33
2023/12/26 09:50:00;;;;;;;3.10;1.50;;;;;;;-128.00;-1.00;-1.00;100219;1286;1003864;-34
2023/12/26 09:52:26;;;;;;;1.80;0.70;;;;;;;-128.00;-1.00;-1.00;100235;1283;1003838;-34
2023/12/26 09:54:51;;;;;;;1.30;0.70;;;;;;;-128.00;-1.00;-1.00;100158;1286;1038363;-34
2023/12/26 09:57:17;;;;;;;2.00;1.10;;;;;;;-128.00;-1.00;-1.00;100175;1283;1002821;-36
2023/12/26 09:59:43;;;;;;;1.90;0.70;;;;;;;-128.00;-1.00;-1.00;100225;1282;1055667;-35
2023/12/26 10:02:12;;;;;;;1.00;0.70;;;;;;;-128.00;-1.00;-1.00;100120;1286;1003164;-35
2023/12/26 10:04:38;;;;;;;1.80;0.40;;;;;;;-128.00;-1.00;-1.00;100213;1284;1011857;-34
2023/12/26 10:07:04;;;;;;;1.00;0.50;;;;;;;-128.00;-1.00;-1.00;100217;1288;1004187;-33
2023/12/26 10:09:30;;;;;;;;;;;;;;;-128.00;-1.00;-1.00;100219;1287;1002875;-34
2023/12/26 10:11:56;;;;;;;1.00;0.40;;;;;;;-128.00;-1.00;-1.00;100208;1283;1003308;-33
2023/12/26 10:14:28;;;;;;;1.50;0.70;;;;;;;-128.00;-1.00;-1.00;100316;1283;1058300;-34
2023/12/26 10:16:58;;;;;;;0.90;0.50;;;;;;;-128.00;-1.00;-1.00;100171;1283;1013610;-34
2023/12/26 10:19:24;;;;;;;0.80;0.40;;;;;;;-128.00;-1.00;-1.00;100205;1283;1039072;-34
2023/12/26 10:21:52;;;;;;;;;;;;;;;-128.00;-1.00;-1.00;100198;1283;1004709;-34
2023/12/26 10:24:18;;;;;;;1.40;0.50;;;;;;;-128.00;-1.00;-1.00;100302;1286;1003722;-34
2023/12/26 10:26:44;;;;;;;0.80;0.40;;;;;;;-128.00;-1.00;-1.00;100190;1283;1004198;-38
2023/12/26 10:29:13;;;;;;;;;;;;;;;-128.00;-1.00;-1.00;100200;1285;1002977;-34
2023/12/26 10:31:42;;;;;;;1.90;0.90;;;;;;;-128.00;-1.00;-1.00;100141;1283;1004157;-34
2023/12/26 10:34:16;;;;;;;1.40;0.60;;;;;;;-128.00;-1.00;-1.00;100236;1285;1039050;-34
2023/12/26 10:36:43;;;;;;;1.10;0.50;;;;;;;-128.00;-1.00;-1.00;100194;1285;1045961;-33
2023/12/26 10:39:10;;;;;;;1.20;0.60;;;;;;;-128.00;-1.00;-1.00;100151;1285;1003327;-34
2023/12/26 10:41:43;;;;;;;1.30;0.60;;;;;;;-128.00;-1.00;-1.00;100188;1283;1003835;-34
2023/12/26 10:44:08;;;;;;;4.00;0.90;;;;;;;-128.00;-1.00;-1.00;100158;1284;1058753;-34
2023/12/26 10:46:34;;;;;;;1.30;0.40;;;;;;;-128.00;-1.00;-1.00;100274;1283;1003434;-35
2023/12/26 10:49:04;;;;;;;1.10;0.40;;;;;;;-128.00;-1.00;-1.00;100172;1283;1046807;-35
2023/12/26 10:51:30;;;;;;;0.80;0.40;;;;;;;-128.00;-1.00;-1.00;100198;1283;1060804;-34
2023/12/26 10:54:06;;;;;;;1.20;0.50;;;;;;;-128.00;-1.00;-1.00;100168;1282;1003188;-35
2023/12/26 10:56:32;;;;;;;0.80;0.50;;;;;;;-128.00;-1.00;-1.00;100079;1288;1059054;-34
2023/12/26 10:58:58;;;;;;;1.10;0.40;;;;;;;-128.00;-1.00;-1.00;100139;1288;1003272;-35
2023/12/26 11:01:24;;;;;;;1.00;0.40;;;;;;;-128.00;-1.00;-1.00;100173;1285;1003485;-35
2023/12/26 11:03:49;;;;;;;1.10;0.30;;;;;;;-128.00;-1.00;-1.00;100191;1282;1002520;-35
2023/12/26 11:06:15;;;;;;;0.90;0.40;;;;;;;-128.00;-1.00;-1.00;100175;1284;1056571;-35
2023/12/26 11:08:41;;;;;;;0.90;0.40;;;;;;;-128.00;-1.00;-1.00;100108;1282;1002561;-33
2023/12/26 11:11:06;;;;;;;0.70;0.40;;;;;;;-128.00;-1.00;-1.00;100299;1286;1004001;-33
2023/12/26 11:13:32;;;;;;;1.20;0.40;;;;;;;-128.00;-1.00;-1.00;100272;1283;1045784;-34
2023/12/26 11:15:57;;;;;;;2.00;0.60;;;;;;;-128.00;-1.00;-1.00;100185;1282;1003706;-34
2023/12/26 11:18:23;;;;;;;1.50;0.60;;;;;;;-128.00;-1.00;-1.00;100116;1283;1003986;-34
2023/12/26 11:20:48;;;;;;;1.80;0.50;;;;;;;-128.00;-1.00;-1.00;100151;1288;1003190;-35
2023/12/26 11:23:14;;;;;;;3.80;0.60;;;;;;;-128.00;-1.00;-1.00;100222;1286;1003552;-35
2023/12/26 11:25:39;;;;;;;0.60;0.40;;;;;;;-128.00;-1.00;-1.00;100159;1285;1003045;-35
2023/12/26 11:28:05;;;;;;;1.80;0.40;;;;;;;-128.00;-1.00;-1.00;100170;1284;1002583;-34
2023/12/26 11:30:30;;;;;;;4.00;0.50;;;;;;;-128.00;-1.00;-1.00;100235;1285;1002662;-34
2023/12/26 11:32:56;;;;;;;0.60;0.40;;;;;;;-128.00;-1.00;-1.00;100271;1283;1002824;-35
2023/12/26 11:35:22;;;;;;;0.90;0.50;;;;;;;-128.00;-1.00;-1.00;100198;1282;1003300;-35
2023/12/26 11:37:47;;;;;;;1.40;0.50;;;;;;;-128.00;-1.00;-1.00;100198;1284;1003433;-34
2023/12/26 11:40:13;;;;;;;1.00;0.50;;;;;;;-128.00;-1.00;-1.00;100165;1287;1003031;-35
2023/12/26 11:42:39;;;;;;;0.60;0.30;;;;;;;-128.00;-1.00;-1.00;100157;1287;1038872;-34
2023/12/26 11:45:04;;;;;;;1.80;0.30;;;;;;;-128.00;-1.00;-1.00;100188;1283;1003637;-35
2023/12/26 11:47:30;;;;;;;0.70;0.40;;;;;;;-128.00;-1.00;-1.00;100209;1283;1002875;-35
2023/12/26 11:49:56;;;;;;;1.60;0.60;;;;;;;-128.00;-1.00;-1.00;100177;1283;1004366;-35
2023/12/26 11:52:21;;;;;;;1.90;0.60;;;;;;;-128.00;-1.00;-1.00;100197;1282;1003658;-36
2023/12/26 11:54:47;;;;;;;1.50;0.30;;;;;;;-128.00;-1.00;-1.00;100126;1284;1003625;-35
2023/12/26 11:57:12;;;;;;;1.80;0.60;;;;;;;-128.00;-1.00;-1.00;100209;1282;1060239;-35